sensor_id;sensor_type;location;lat;lon;timestamp;P1;durP1;ratioP1;P2;durP2;ratioP2
18391;SDS011;9322;50.932;5.318;2022-09-17T00:00:42;10.40;;;1.73;;
18391;SDS011;9322;50.932;5.318;2022-09-17T00:03:08;10.83;;;1.30;;
18391;SDS011;9322;50.932;5.318;2022-09-17T00:05:35;8.50;;;1.50;;
18391;SDS011;9322;50.932;5.318;2022-09-17T00:08:03;7.53;;;1.63;;
18391;SDS011;9322;50.932;5.318;2022-09-17T00:10:37;7.30;;;1.80;;
18391;SDS011;9322;50.932;5.318;2022-09-17T00:13:04;8.83;;;1.60;;
18391;SDS011;9322;50.932;5.318;2022-09-17T00:15:30;7.27;;;1.53;;
18391;SDS011;9322;50.932;5.318;2022-09-17T00:17:56;10.60;;;1.80;;
18391;SDS011;9322;50.932;5.318;2022-09-17T00:20:26;11.77;;;1.90;;
18391;SDS011;9322;50.932;5.318;2022-09-17T00:22:52;9.43;;;1.50;;
18391;SDS011;9322;50.932;5.318;2022-09-17T00:25:18;9.60;;;1.70;;
18391;SDS011;9322;50.932;5.318;2022-09-17T00:27:44;10.03;;;1.97;;
18391;SDS011;9322;50.932;5.318;2022-09-17T00:30:10;10.17;;;1.83;;
18391;SDS011;9322;50.932;5.318;2022-09-17T00:32:37;9.40;;;1.63;;
18391;SDS011;9322;50.932;5.318;2022-09-17T00:35:03;9.33;;;1.60;;
18391;SDS011;9322;50.932;5.318;2022-09-17T00:37:29;12.03;;;1.80;;
18391;SDS011;9322;50.932;5.318;2022-09-17T00:39:55;10.07;;;1.90;;
18391;SDS011;9322;50.932;5.318;2022-09-17T00:42:21;13.43;;;2.07;;
18391;SDS011;9322;50.932;5.318;2022-09-17T00:44:51;10.73;;;1.80;;
18391;SDS011;9322;50.932;5.318;2022-09-17T00:52:39;8.37;;;1.77;;
18391;SDS011;9322;50.932;5.318;2022-09-17T00:55:09;11.87;;;2.27;;
18391;SDS011;9322;50.932;5.318;2022-09-17T00:57:45;13.03;;;2.20;;
18391;SDS011;9322;50.932;5.318;2022-09-17T01:00:13;10.90;;;2.00;;
18391;SDS011;9322;50.932;5.318;2022-09-17T01:02:40;13.57;;;1.70;;
18391;SDS011;9322;50.932;5.318;2022-09-17T01:05:07;14.23;;;2.30;;
18391;SDS011;9322;50.932;5.318;2022-09-17T01:10:37;16.07;;;2.10;;
18391;SDS011;9322;50.932;5.318;2022-09-17T01:31:47;13.67;;;1.80;;
18391;SDS011;9322;50.932;5.318;2022-09-17T01:34:27;15.30;;;2.03;;
18391;SDS011;9322;50.932;5.318;2022-09-17T01:37:10;12.97;;;1.90;;
18391;SDS011;9322;50.932;5.318;2022-09-17T01:39:51;13.30;;;2.40;;
18391;SDS011;9322;50.932;5.318;2022-09-17T01:42:26;21.13;;;3.17;;
18391;SDS011;9322;50.932;5.318;2022-09-17T01:47:55;10.67;;;1.97;;
18391;SDS011;9322;50.932;5.318;2022-09-17T01:50:32;18.87;;;2.67;;
18391;SDS011;9322;50.932;5.318;2022-09-17T01:53:02;10.03;;;1.93;;
18391;SDS011;9322;50.932;5.318;2022-09-17T01:55:30;14.63;;;1.77;;
18391;SDS011;9322;50.932;5.318;2022-09-17T01:58:03;10.40;;;1.70;;
18391;SDS011;9322;50.932;5.318;2022-09-17T02:00:36;7.77;;;2.00;;
18391;SDS011;9322;50.932;5.318;2022-09-17T02:03:12;13.27;;;1.73;;
18391;SDS011;9322;50.932;5.318;2022-09-17T02:05:53;10.97;;;1.80;;
18391;SDS011;9322;50.932;5.318;2022-09-17T02:08:21;14.43;;;2.47;;
18391;SDS011;9322;50.932;5.318;2022-09-17T02:11:12;11.67;;;1.80;;
18391;SDS011;9322;50.932;5.318;2022-09-17T02:13:43;13.93;;;2.30;;
18391;SDS011;9322;50.932;5.318;2022-09-17T02:16:20;11.20;;;1.83;;
18391;SDS011;9322;50.932;5.318;2022-09-17T02:18:53;12.33;;;2.43;;
18391;SDS011;9322;50.932;5.318;2022-09-17T02:26:46;18.43;;;2.73;;
18391;SDS011;9322;50.932;5.318;2022-09-17T02:29:34;10.77;;;2.27;;
18391;SDS011;9322;50.932;5.318;2022-09-17T02:32:01;11.77;;;2.27;;
18391;SDS011;9322;50.932;5.318;2022-09-17T02:34:28;14.17;;;2.90;;
18391;SDS011;9322;50.932;5.318;2022-09-17T02:36:54;15.03;;;2.57;;
18391;SDS011;9322;50.932;5.318;2022-09-17T02:39:22;16.33;;;2.50;;
18391;SDS011;9322;50.932;5.318;2022-09-17T02:50:15;13.47;;;2.30;;
18391;SDS011;9322;50.932;5.318;2022-09-17T02:55:29;9.97;;;2.93;;
18391;SDS011;9322;50.932;5.318;2022-09-17T03:00:44;14.57;;;2.30;;
18391;SDS011;9322;50.932;5.318;2022-09-17T03:03:12;16.90;;;2.30;;
18391;SDS011;9322;50.932;5.318;2022-09-17T03:05:45;11.70;;;2.30;;
18391;SDS011;9322;50.932;5.318;2022-09-17T03:08:12;11.23;;;2.40;;
18391;SDS011;9322;50.932;5.318;2022-09-17T03:10:38;19.53;;;3.17;;
18391;SDS011;9322;50.932;5.318;2022-09-17T03:13:04;18.60;;;2.20;;
18391;SDS011;9322;50.932;5.318;2022-09-17T03:15:30;17.00;;;2.10;;
18391;SDS011;9322;50.932;5.318;2022-09-17T03:17:56;24.20;;;2.63;;
18391;SDS011;9322;50.932;5.318;2022-09-17T03:20:22;12.17;;;1.90;;
18391;SDS011;9322;50.932;5.318;2022-09-17T03:22:47;14.40;;;2.50;;
18391;SDS011;9322;50.932;5.318;2022-09-17T03:25:15;10.37;;;2.00;;
18391;SDS011;9322;50.932;5.318;2022-09-17T03:27:40;11.67;;;2.07;;
18391;SDS011;9322;50.932;5.318;2022-09-17T03:30:06;12.80;;;2.13;;
18391;SDS011;9322;50.932;5.318;2022-09-17T03:32:32;17.13;;;2.50;;
18391;SDS011;9322;50.932;5.318;2022-09-17T03:34:58;12.80;;;2.07;;
18391;SDS011;9322;50.932;5.318;2022-09-17T03:37:23;12.03;;;1.90;;
18391;SDS011;9322;50.932;5.318;2022-09-17T03:39:49;18.10;;;2.47;;
18391;SDS011;9322;50.932;5.318;2022-09-17T03:42:15;8.97;;;1.90;;
18391;SDS011;9322;50.932;5.318;2022-09-17T03:44:40;16.07;;;1.83;;
18391;SDS011;9322;50.932;5.318;2022-09-17T03:47:06;13.00;;;2.40;;
18391;SDS011;9322;50.932;5.318;2022-09-17T03:49:32;11.53;;;2.17;;
18391;SDS011;9322;50.932;5.318;2022-09-17T03:51:58;17.57;;;2.23;;
18391;SDS011;9322;50.932;5.318;2022-09-17T03:54:23;22.20;;;2.83;;
18391;SDS011;9322;50.932;5.318;2022-09-17T03:56:49;15.37;;;1.83;;
18391;SDS011;9322;50.932;5.318;2022-09-17T03:59:15;12.03;;;1.73;;
18391;SDS011;9322;50.932;5.318;2022-09-17T04:01:41;10.70;;;1.90;;
18391;SDS011;9322;50.932;5.318;2022-09-17T04:04:07;13.90;;;2.17;;
18391;SDS011;9322;50.932;5.318;2022-09-17T04:06:33;12.33;;;1.93;;
18391;SDS011;9322;50.932;5.318;2022-09-17T04:08:58;25.67;;;2.10;;
18391;SDS011;9322;50.932;5.318;2022-09-17T04:11:25;24.50;;;1.93;;
18391;SDS011;9322;50.932;5.318;2022-09-17T04:13:51;13.23;;;2.60;;
18391;SDS011;9322;50.932;5.318;2022-09-17T04:16:17;10.67;;;2.20;;
18391;SDS011;9322;50.932;5.318;2022-09-17T04:18:42;20.00;;;2.00;;
18391;SDS011;9322;50.932;5.318;2022-09-17T04:21:08;10.63;;;2.03;;
18391;SDS011;9322;50.932;5.318;2022-09-17T04:23:34;11.23;;;2.00;;
18391;SDS011;9322;50.932;5.318;2022-09-17T04:26:00;18.13;;;2.17;;
18391;SDS011;9322;50.932;5.318;2022-09-17T04:28:25;17.60;;;2.27;;
18391;SDS011;9322;50.932;5.318;2022-09-17T04:30:51;10.40;;;2.53;;
18391;SDS011;9322;50.932;5.318;2022-09-17T04:33:17;12.07;;;2.47;;
18391;SDS011;9322;50.932;5.318;2022-09-17T04:35:42;11.50;;;1.93;;
18391;SDS011;9322;50.932;5.318;2022-09-17T04:38:09;21.27;;;2.40;;
18391;SDS011;9322;50.932;5.318;2022-09-17T04:40:34;18.97;;;2.97;;
18391;SDS011;9322;50.932;5.318;2022-09-17T04:43:00;14.57;;;2.67;;
18391;SDS011;9322;50.932;5.318;2022-09-17T04:45:27;15.27;;;1.93;;
18391;SDS011;9322;50.932;5.318;2022-09-17T04:47:53;13.77;;;2.00;;
18391;SDS011;9322;50.932;5.318;2022-09-17T04:50:19;15.77;;;2.20;;
18391;SDS011;9322;50.932;5.318;2022-09-17T04:52:46;15.13;;;2.23;;
18391;SDS011;9322;50.932;5.318;2022-09-17T04:55:12;19.10;;;2.30;;
18391;SDS011;9322;50.932;5.318;2022-09-17T04:57:49;9.37;;;2.30;;
18391;SDS011;9322;50.932;5.318;2022-09-17T05:00:16;21.53;;;2.60;;
18391;SDS011;9322;50.932;5.318;2022-09-17T05:02:44;16.50;;;2.30;;
18391;SDS011;9322;50.932;5.318;2022-09-17T05:05:11;15.57;;;1.83;;
18391;SDS011;9322;50.932;5.318;2022-09-17T05:07:37;16.87;;;2.87;;
18391;SDS011;9322;50.932;5.318;2022-09-17T05:10:03;16.83;;;2.60;;
18391;SDS011;9322;50.932;5.318;2022-09-17T05:12:29;27.90;;;2.77;;
18391;SDS011;9322;50.932;5.318;2022-09-17T05:14:55;12.30;;;2.07;;
18391;SDS011;9322;50.932;5.318;2022-09-17T05:17:21;16.03;;;2.43;;
18391;SDS011;9322;50.932;5.318;2022-09-17T05:19:47;21.77;;;2.40;;
18391;SDS011;9322;50.932;5.318;2022-09-17T05:22:12;19.23;;;2.17;;
18391;SDS011;9322;50.932;5.318;2022-09-17T05:24:38;17.67;;;2.10;;
18391;SDS011;9322;50.932;5.318;2022-09-17T05:27:07;19.97;;;2.87;;
18391;SDS011;9322;50.932;5.318;2022-09-17T05:29:33;16.80;;;2.20;;
18391;SDS011;9322;50.932;5.318;2022-09-17T05:31:58;15.67;;;2.30;;
18391;SDS011;9322;50.932;5.318;2022-09-17T05:34:24;24.23;;;2.77;;
18391;SDS011;9322;50.932;5.318;2022-09-17T05:36:50;25.07;;;2.40;;
18391;SDS011;9322;50.932;5.318;2022-09-17T05:39:15;20.73;;;2.20;;
18391;SDS011;9322;50.932;5.318;2022-09-17T05:41:41;13.37;;;2.30;;
18391;SDS011;9322;50.932;5.318;2022-09-17T05:44:07;19.53;;;2.57;;
18391;SDS011;9322;50.932;5.318;2022-09-17T05:46:32;18.27;;;2.30;;
18391;SDS011;9322;50.932;5.318;2022-09-17T05:48:58;26.30;;;2.60;;
18391;SDS011;9322;50.932;5.318;2022-09-17T05:51:24;19.73;;;2.73;;
18391;SDS011;9322;50.932;5.318;2022-09-17T05:53:49;12.60;;;2.50;;
18391;SDS011;9322;50.932;5.318;2022-09-17T05:56:15;18.20;;;2.50;;
18391;SDS011;9322;50.932;5.318;2022-09-17T05:58:41;25.50;;;2.90;;
18391;SDS011;9322;50.932;5.318;2022-09-17T06:01:06;15.90;;;2.50;;
18391;SDS011;9322;50.932;5.318;2022-09-17T06:03:32;19.90;;;2.17;;
18391;SDS011;9322;50.932;5.318;2022-09-17T06:05:58;21.13;;;2.93;;
18391;SDS011;9322;50.932;5.318;2022-09-17T06:08:25;20.30;;;3.17;;
18391;SDS011;9322;50.932;5.318;2022-09-17T06:10:52;14.30;;;2.77;;
18391;SDS011;9322;50.932;5.318;2022-09-17T06:13:18;16.87;;;2.43;;
18391;SDS011;9322;50.932;5.318;2022-09-17T06:15:48;16.93;;;2.53;;
18391;SDS011;9322;50.932;5.318;2022-09-17T06:18:15;17.83;;;2.13;;
18391;SDS011;9322;50.932;5.318;2022-09-17T06:20:41;14.73;;;2.17;;
18391;SDS011;9322;50.932;5.318;2022-09-17T06:23:06;12.83;;;1.90;;
18391;SDS011;9322;50.932;5.318;2022-09-17T06:25:32;16.83;;;1.90;;
18391;SDS011;9322;50.932;5.318;2022-09-17T06:28:00;16.43;;;2.07;;
18391;SDS011;9322;50.932;5.318;2022-09-17T06:30:27;10.87;;;1.70;;
18391;SDS011;9322;50.932;5.318;2022-09-17T06:32:53;10.67;;;1.90;;
18391;SDS011;9322;50.932;5.318;2022-09-17T06:35:18;14.10;;;1.60;;
18391;SDS011;9322;50.932;5.318;2022-09-17T06:37:44;12.80;;;1.93;;
18391;SDS011;9322;50.932;5.318;2022-09-17T06:40:10;15.63;;;2.80;;
18391;SDS011;9322;50.932;5.318;2022-09-17T06:42:35;14.37;;;2.00;;
18391;SDS011;9322;50.932;5.318;2022-09-17T06:45:03;10.73;;;1.80;;
18391;SDS011;9322;50.932;5.318;2022-09-17T06:47:29;13.93;;;1.90;;
18391;SDS011;9322;50.932;5.318;2022-09-17T06:49:55;13.50;;;1.77;;
18391;SDS011;9322;50.932;5.318;2022-09-17T06:52:21;19.20;;;2.37;;
18391;SDS011;9322;50.932;5.318;2022-09-17T06:54:47;16.27;;;2.00;;
18391;SDS011;9322;50.932;5.318;2022-09-17T06:57:12;15.23;;;2.23;;
18391;SDS011;9322;50.932;5.318;2022-09-17T06:59:38;13.83;;;2.00;;
18391;SDS011;9322;50.932;5.318;2022-09-17T07:02:04;13.83;;;2.20;;
18391;SDS011;9322;50.932;5.318;2022-09-17T07:04:30;16.17;;;2.00;;
18391;SDS011;9322;50.932;5.318;2022-09-17T07:06:55;12.37;;;1.97;;
18391;SDS011;9322;50.932;5.318;2022-09-17T07:09:21;9.40;;;1.50;;
18391;SDS011;9322;50.932;5.318;2022-09-17T07:11:47;12.13;;;1.57;;
18391;SDS011;9322;50.932;5.318;2022-09-17T07:14:12;12.37;;;1.60;;
18391;SDS011;9322;50.932;5.318;2022-09-17T07:16:38;15.15;;;1.70;;
18391;SDS011;9322;50.932;5.318;2022-09-17T07:19:04;9.65;;;1.55;;
18391;SDS011;9322;50.932;5.318;2022-09-17T07:21:30;5.90;;;1.35;;
18391;SDS011;9322;50.932;5.318;2022-09-17T07:23:56;12.35;;;1.77;;
18391;SDS011;9322;50.932;5.318;2022-09-17T07:26:21;11.43;;;1.40;;
18391;SDS011;9322;50.932;5.318;2022-09-17T07:28:47;7.40;;;1.60;;
18391;SDS011;9322;50.932;5.318;2022-09-17T07:31:13;6.72;;;1.40;;
18391;SDS011;9322;50.932;5.318;2022-09-17T07:33:39;8.15;;;1.55;;
18391;SDS011;9322;50.932;5.318;2022-09-17T07:36:14;7.85;;;1.30;;
18391;SDS011;9322;50.932;5.318;2022-09-17T07:38:41;10.52;;;1.40;;
18391;SDS011;9322;50.932;5.318;2022-09-17T07:41:14;8.15;;;1.67;;
18391;SDS011;9322;50.932;5.318;2022-09-17T07:43:40;11.23;;;1.50;;
18391;SDS011;9322;50.932;5.318;2022-09-17T07:46:09;6.35;;;1.40;;
18391;SDS011;9322;50.932;5.318;2022-09-17T07:48:39;5.43;;;1.60;;
18391;SDS011;9322;50.932;5.318;2022-09-17T07:51:05;9.23;;;1.40;;
18391;SDS011;9322;50.932;5.318;2022-09-17T07:53:30;10.90;;;1.65;;
18391;SDS011;9322;50.932;5.318;2022-09-17T07:55:57;10.10;;;1.45;;
18391;SDS011;9322;50.932;5.318;2022-09-17T07:58:28;12.77;;;1.50;;
18391;SDS011;9322;50.932;5.318;2022-09-17T08:01:01;8.88;;;2.17;;
18391;SDS011;9322;50.932;5.318;2022-09-17T08:03:29;8.18;;;1.38;;
18391;SDS011;9322;50.932;5.318;2022-09-17T08:06:01;5.87;;;1.30;;
18391;SDS011;9322;50.932;5.318;2022-09-17T08:08:28;11.10;;;1.50;;
18391;SDS011;9322;50.932;5.318;2022-09-17T08:10:58;8.80;;;1.30;;
18391;SDS011;9322;50.932;5.318;2022-09-17T08:13:25;9.03;;;1.40;;
18391;SDS011;9322;50.932;5.318;2022-09-17T08:15:51;8.13;;;1.10;;
18391;SDS011;9322;50.932;5.318;2022-09-17T08:18:16;8.03;;;1.10;;
18391;SDS011;9322;50.932;5.318;2022-09-17T08:20:42;6.43;;;1.33;;
18391;SDS011;9322;50.932;5.318;2022-09-17T08:23:08;6.00;;;1.10;;
18391;SDS011;9322;50.932;5.318;2022-09-17T08:25:34;9.43;;;1.00;;
18391;SDS011;9322;50.932;5.318;2022-09-17T08:28:00;9.63;;;1.30;;
18391;SDS011;9322;50.932;5.318;2022-09-17T08:30:25;5.93;;;1.30;;
18391;SDS011;9322;50.932;5.318;2022-09-17T08:32:54;10.60;;;1.30;;
18391;SDS011;9322;50.932;5.318;2022-09-17T08:35:20;8.70;;;1.52;;
18391;SDS011;9322;50.932;5.318;2022-09-17T08:37:46;6.72;;;1.30;;
18391;SDS011;9322;50.932;5.318;2022-09-17T08:40:13;6.97;;;1.23;;
18391;SDS011;9322;50.932;5.318;2022-09-17T08:42:55;7.07;;;1.52;;
18391;SDS011;9322;50.932;5.318;2022-09-17T08:45:26;7.68;;;1.20;;
18391;SDS011;9322;50.932;5.318;2022-09-17T08:47:54;5.70;;;1.38;;
18391;SDS011;9322;50.932;5.318;2022-09-17T08:50:28;10.00;;;1.27;;
18391;SDS011;9322;50.932;5.318;2022-09-17T08:53:12;6.45;;;1.40;;
18391;SDS011;9322;50.932;5.318;2022-09-17T08:56:00;4.85;;;1.10;;
18391;SDS011;9322;50.932;5.318;2022-09-17T09:07:00;6.93;;;1.08;;
18391;SDS011;9322;50.932;5.318;2022-09-17T09:09:41;8.55;;;1.10;;
18391;SDS011;9322;50.932;5.318;2022-09-17T09:12:21;7.00;;;0.98;;
18391;SDS011;9322;50.932;5.318;2022-09-17T09:14:57;5.68;;;1.02;;
18391;SDS011;9322;50.932;5.318;2022-09-17T09:17:44;8.25;;;1.10;;
18391;SDS011;9322;50.932;5.318;2022-09-17T09:20:38;15.55;;;1.40;;
18391;SDS011;9322;50.932;5.318;2022-09-17T09:23:14;7.78;;;1.20;;
18391;SDS011;9322;50.932;5.318;2022-09-17T09:26:17;4.85;;;1.13;;
18391;SDS011;9322;50.932;5.318;2022-09-17T09:28:50;6.18;;;1.10;;
18391;SDS011;9322;50.932;5.318;2022-09-17T09:31:47;7.43;;;0.93;;
18391;SDS011;9322;50.932;5.318;2022-09-17T09:34:24;13.85;;;1.75;;
18391;SDS011;9322;50.932;5.318;2022-09-17T09:36:54;6.88;;;1.20;;
18391;SDS011;9322;50.932;5.318;2022-09-17T09:39:36;11.55;;;1.30;;
18391;SDS011;9322;50.932;5.318;2022-09-17T09:44:53;8.60;;;1.30;;
18391;SDS011;9322;50.932;5.318;2022-09-17T09:47:25;7.85;;;1.33;;
18391;SDS011;9322;50.932;5.318;2022-09-17T09:52:58;6.75;;;1.33;;
18391;SDS011;9322;50.932;5.318;2022-09-17T10:01:00;13.90;;;1.85;;
18391;SDS011;9322;50.932;5.318;2022-09-17T10:03:30;12.05;;;1.90;;
18391;SDS011;9322;50.932;5.318;2022-09-17T10:06:00;7.05;;;1.20;;
18391;SDS011;9322;50.932;5.318;2022-09-17T10:08:32;6.80;;;1.30;;
18391;SDS011;9322;50.932;5.318;2022-09-17T10:11:00;8.48;;;1.38;;
18391;SDS011;9322;50.932;5.318;2022-09-17T10:13:28;3.97;;;0.98;;
18391;SDS011;9322;50.932;5.318;2022-09-17T10:15:55;4.32;;;1.00;;
18391;SDS011;9322;50.932;5.318;2022-09-17T10:18:24;6.63;;;1.13;;
18391;SDS011;9322;50.932;5.318;2022-09-17T10:20:54;7.47;;;1.20;;
18391;SDS011;9322;50.932;5.318;2022-09-17T10:23:22;6.53;;;1.30;;
18391;SDS011;9322;50.932;5.318;2022-09-17T10:25:50;10.38;;;2.00;;
18391;SDS011;9322;50.932;5.318;2022-09-17T10:31:03;6.43;;;1.10;;
18391;SDS011;9322;50.932;5.318;2022-09-17T10:33:34;8.60;;;1.30;;
18391;SDS011;9322;50.932;5.318;2022-09-17T10:36:03;8.63;;;1.20;;
18391;SDS011;9322;50.932;5.318;2022-09-17T10:38:39;6.30;;;1.00;;
18391;SDS011;9322;50.932;5.318;2022-09-17T10:43:35;7.17;;;1.20;;
18391;SDS011;9322;50.932;5.318;2022-09-17T10:46:01;8.27;;;1.27;;
18391;SDS011;9322;50.932;5.318;2022-09-17T10:48:29;8.07;;;1.37;;
18391;SDS011;9322;50.932;5.318;2022-09-17T10:50:58;8.15;;;1.33;;
18391;SDS011;9322;50.932;5.318;2022-09-17T10:53:26;9.82;;;2.40;;
18391;SDS011;9322;50.932;5.318;2022-09-17T10:58:47;6.43;;;1.25;;
18391;SDS011;9322;50.932;5.318;2022-09-17T11:01:30;7.68;;;1.50;;
18391;SDS011;9322;50.932;5.318;2022-09-17T11:04:26;7.78;;;1.42;;
18391;SDS011;9322;50.932;5.318;2022-09-17T11:13:01;5.85;;;1.02;;
18391;SDS011;9322;50.932;5.318;2022-09-17T11:20:46;7.80;;;1.05;;
18391;SDS011;9322;50.932;5.318;2022-09-17T11:23:41;3.33;;;0.90;;
18391;SDS011;9322;50.932;5.318;2022-09-17T11:31:58;4.20;;;0.63;;
18391;SDS011;9322;50.932;5.318;2022-09-17T11:40:12;6.32;;;0.70;;
18391;SDS011;9322;50.932;5.318;2022-09-17T11:42:45;3.83;;;0.60;;
18391;SDS011;9322;50.932;5.318;2022-09-17T11:48:06;3.85;;;0.60;;
18391;SDS011;9322;50.932;5.318;2022-09-17T11:50:36;1.60;;;0.50;;
18391;SDS011;9322;50.932;5.318;2022-09-17T11:53:18;3.15;;;0.60;;
18391;SDS011;9322;50.932;5.318;2022-09-17T11:56:01;5.40;;;0.88;;
18391;SDS011;9322;50.932;5.318;2022-09-17T11:58:57;2.78;;;0.50;;
18391;SDS011;9322;50.932;5.318;2022-09-17T12:01:49;2.92;;;0.57;;
18391;SDS011;9322;50.932;5.318;2022-09-17T12:04:30;4.50;;;0.90;;
18391;SDS011;9322;50.932;5.318;2022-09-17T12:15:47;3.95;;;0.75;;
18391;SDS011;9322;50.932;5.318;2022-09-17T12:20:48;4.60;;;0.85;;
18391;SDS011;9322;50.932;5.318;2022-09-17T12:23:19;2.03;;;0.50;;
18391;SDS011;9322;50.932;5.318;2022-09-17T12:26:04;2.45;;;0.80;;
18391;SDS011;9322;50.932;5.318;2022-09-17T12:28:56;3.83;;;0.52;;
18391;SDS011;9322;50.932;5.318;2022-09-17T12:34:35;2.65;;;0.52;;
18391;SDS011;9322;50.932;5.318;2022-09-17T12:42:15;1.02;;;0.40;;
18391;SDS011;9322;50.932;5.318;2022-09-17T12:50:57;3.92;;;0.60;;
18391;SDS011;9322;50.932;5.318;2022-09-17T12:53:41;2.17;;;0.60;;
18391;SDS011;9322;50.932;5.318;2022-09-17T12:59:08;1.90;;;0.77;;
18391;SDS011;9322;50.932;5.318;2022-09-17T13:01:53;3.67;;;0.77;;
18391;SDS011;9322;50.932;5.318;2022-09-17T13:12:43;4.23;;;0.73;;
18391;SDS011;9322;50.932;5.318;2022-09-17T13:15:41;3.27;;;0.70;;
18391;SDS011;9322;50.932;5.318;2022-09-17T13:18:22;6.40;;;1.10;;
18391;SDS011;9322;50.932;5.318;2022-09-17T13:21:28;4.93;;;0.77;;
18391;SDS011;9322;50.932;5.318;2022-09-17T13:23:55;4.43;;;1.00;;
18391;SDS011;9322;50.932;5.318;2022-09-17T13:26:31;8.50;;;0.97;;
18391;SDS011;9322;50.932;5.318;2022-09-17T13:28:59;5.28;;;0.82;;
18391;SDS011;9322;50.932;5.318;2022-09-17T13:34:03;7.32;;;0.90;;
18391;SDS011;9322;50.932;5.318;2022-09-17T13:36:42;6.03;;;1.48;;
18391;SDS011;9322;50.932;5.318;2022-09-17T13:42:07;9.40;;;1.58;;
18391;SDS011;9322;50.932;5.318;2022-09-17T13:44:35;6.18;;;1.27;;
18391;SDS011;9322;50.932;5.318;2022-09-17T13:47:31;5.93;;;0.70;;
18391;SDS011;9322;50.932;5.318;2022-09-17T13:50:06;6.00;;;1.40;;
18391;SDS011;9322;50.932;5.318;2022-09-17T13:52:38;7.50;;;1.10;;
18391;SDS011;9322;50.932;5.318;2022-09-17T13:55:08;13.00;;;1.90;;
18391;SDS011;9322;50.932;5.318;2022-09-17T13:57:55;11.43;;;1.20;;
18391;SDS011;9322;50.932;5.318;2022-09-17T14:13:56;8.17;;;1.00;;
18391;SDS011;9322;50.932;5.318;2022-09-17T14:24:33;13.97;;;1.27;;
18391;SDS011;9322;50.932;5.318;2022-09-17T14:27:04;8.60;;;1.27;;
18391;SDS011;9322;50.932;5.318;2022-09-17T14:34:59;13.60;;;1.67;;
18391;SDS011;9322;50.932;5.318;2022-09-17T14:37:26;4.23;;;1.00;;
18391;SDS011;9322;50.932;5.318;2022-09-17T14:39:52;10.23;;;1.20;;
18391;SDS011;9322;50.932;5.318;2022-09-17T14:42:20;9.47;;;1.37;;
18391;SDS011;9322;50.932;5.318;2022-09-17T14:44:51;7.90;;;1.07;;
18391;SDS011;9322;50.932;5.318;2022-09-17T14:47:22;10.87;;;1.40;;
18391;SDS011;9322;50.932;5.318;2022-09-17T14:49:47;12.63;;;1.37;;
18391;SDS011;9322;50.932;5.318;2022-09-17T14:57:46;11.07;;;1.17;;
18391;SDS011;9322;50.932;5.318;2022-09-17T15:00:27;11.70;;;1.50;;
18391;SDS011;9322;50.932;5.318;2022-09-17T15:03:02;10.73;;;1.30;;
18391;SDS011;9322;50.932;5.318;2022-09-17T15:05:32;10.63;;;1.33;;
18391;SDS011;9322;50.932;5.318;2022-09-17T15:10:34;8.27;;;1.20;;
18391;SDS011;9322;50.932;5.318;2022-09-17T15:13:10;4.90;;;0.57;;
18391;SDS011;9322;50.932;5.318;2022-09-17T15:15:39;5.83;;;0.97;;
18391;SDS011;9322;50.932;5.318;2022-09-17T15:18:14;4.83;;;1.30;;
18391;SDS011;9322;50.932;5.318;2022-09-17T15:20:40;5.10;;;1.00;;
18391;SDS011;9322;50.932;5.318;2022-09-17T15:23:14;8.93;;;0.90;;
18391;SDS011;9322;50.932;5.318;2022-09-17T15:25:44;5.63;;;1.03;;
18391;SDS011;9322;50.932;5.318;2022-09-17T15:28:18;5.47;;;0.90;;
18391;SDS011;9322;50.932;5.318;2022-09-17T15:30:51;7.37;;;1.00;;
18391;SDS011;9322;50.932;5.318;2022-09-17T15:33:17;5.57;;;0.90;;
18391;SDS011;9322;50.932;5.318;2022-09-17T15:38:46;10.27;;;1.30;;
18391;SDS011;9322;50.932;5.318;2022-09-17T15:41:22;7.03;;;1.00;;
18391;SDS011;9322;50.932;5.318;2022-09-17T15:43:48;4.10;;;0.87;;
18391;SDS011;9322;50.932;5.318;2022-09-17T15:46:21;8.10;;;1.10;;
18391;SDS011;9322;50.932;5.318;2022-09-17T15:48:50;5.63;;;1.07;;
18391;SDS011;9322;50.932;5.318;2022-09-17T15:51:24;5.53;;;1.10;;
18391;SDS011;9322;50.932;5.318;2022-09-17T15:53:52;12.97;;;1.23;;
18391;SDS011;9322;50.932;5.318;2022-09-17T15:56:32;5.43;;;1.17;;
18391;SDS011;9322;50.932;5.318;2022-09-17T15:59:04;7.63;;;1.10;;
18391;SDS011;9322;50.932;5.318;2022-09-17T16:02:08;7.67;;;1.20;;
18391;SDS011;9322;50.932;5.318;2022-09-17T16:04:49;9.03;;;1.07;;
18391;SDS011;9322;50.932;5.318;2022-09-17T16:07:38;8.37;;;1.10;;
18391;SDS011;9322;50.932;5.318;2022-09-17T16:10:05;4.43;;;1.00;;
18391;SDS011;9322;50.932;5.318;2022-09-17T16:12:32;9.33;;;1.13;;
18391;SDS011;9322;50.932;5.318;2022-09-17T16:14:58;8.90;;;1.23;;
18391;SDS011;9322;50.932;5.318;2022-09-17T16:19:57;9.37;;;1.50;;
18391;SDS011;9322;50.932;5.318;2022-09-17T16:22:24;9.87;;;1.30;;
18391;SDS011;9322;50.932;5.318;2022-09-17T16:24:51;7.77;;;1.20;;
18391;SDS011;9322;50.932;5.318;2022-09-17T16:27:21;5.67;;;1.37;;
18391;SDS011;9322;50.932;5.318;2022-09-17T16:29:51;10.17;;;1.60;;
18391;SDS011;9322;50.932;5.318;2022-09-17T16:32:22;7.57;;;1.30;;
18391;SDS011;9322;50.932;5.318;2022-09-17T16:34:48;14.47;;;1.57;;
18391;SDS011;9322;50.932;5.318;2022-09-17T16:37:13;9.27;;;1.30;;
18391;SDS011;9322;50.932;5.318;2022-09-17T16:39:39;8.93;;;1.53;;
18391;SDS011;9322;50.932;5.318;2022-09-17T16:42:04;8.00;;;1.20;;
18391;SDS011;9322;50.932;5.318;2022-09-17T16:44:30;11.77;;;1.70;;
18391;SDS011;9322;50.932;5.318;2022-09-17T16:46:57;8.93;;;1.43;;
18391;SDS011;9322;50.932;5.318;2022-09-17T16:49:22;9.77;;;1.30;;
18391;SDS011;9322;50.932;5.318;2022-09-17T16:51:48;9.80;;;1.10;;
18391;SDS011;9322;50.932;5.318;2022-09-17T16:54:14;11.03;;;1.60;;
18391;SDS011;9322;50.932;5.318;2022-09-17T16:56:40;9.10;;;1.50;;
18391;SDS011;9322;50.932;5.318;2022-09-17T16:59:05;13.50;;;1.47;;
18391;SDS011;9322;50.932;5.318;2022-09-17T17:01:31;7.13;;;1.33;;
18391;SDS011;9322;50.932;5.318;2022-09-17T17:03:57;10.00;;;1.23;;
18391;SDS011;9322;50.932;5.318;2022-09-17T17:06:24;9.07;;;1.17;;
18391;SDS011;9322;50.932;5.318;2022-09-17T17:08:50;7.43;;;1.37;;
18391;SDS011;9322;50.932;5.318;2022-09-17T17:11:16;13.53;;;1.70;;
18391;SDS011;9322;50.932;5.318;2022-09-17T17:13:42;7.00;;;1.03;;
18391;SDS011;9322;50.932;5.318;2022-09-17T17:16:09;14.53;;;1.70;;
18391;SDS011;9322;50.932;5.318;2022-09-17T17:18:36;11.57;;;1.03;;
18391;SDS011;9322;50.932;5.318;2022-09-17T17:21:03;10.47;;;1.70;;
18391;SDS011;9322;50.932;5.318;2022-09-17T17:23:30;11.33;;;1.40;;
18391;SDS011;9322;50.932;5.318;2022-09-17T17:25:55;9.20;;;0.97;;
18391;SDS011;9322;50.932;5.318;2022-09-17T17:28:21;5.97;;;0.93;;
18391;SDS011;9322;50.932;5.318;2022-09-17T17:30:47;12.30;;;2.23;;
18391;SDS011;9322;50.932;5.318;2022-09-17T17:33:13;16.80;;;1.70;;
18391;SDS011;9322;50.932;5.318;2022-09-17T17:35:38;10.53;;;1.30;;
18391;SDS011;9322;50.932;5.318;2022-09-17T17:38:04;7.40;;;1.10;;
18391;SDS011;9322;50.932;5.318;2022-09-17T17:40:30;15.40;;;1.87;;
18391;SDS011;9322;50.932;5.318;2022-09-17T17:42:55;9.83;;;1.30;;
18391;SDS011;9322;50.932;5.318;2022-09-17T17:45:21;7.33;;;1.00;;
18391;SDS011;9322;50.932;5.318;2022-09-17T17:47:47;7.60;;;1.20;;
18391;SDS011;9322;50.932;5.318;2022-09-17T17:50:12;9.10;;;1.30;;
18391;SDS011;9322;50.932;5.318;2022-09-17T17:52:39;7.57;;;1.30;;
18391;SDS011;9322;50.932;5.318;2022-09-17T17:55:11;4.57;;;1.00;;
18391;SDS011;9322;50.932;5.318;2022-09-17T17:57:38;8.20;;;1.33;;
18391;SDS011;9322;50.932;5.318;2022-09-17T18:00:04;14.67;;;1.93;;
18391;SDS011;9322;50.932;5.318;2022-09-17T18:02:30;12.07;;;1.60;;
18391;SDS011;9322;50.932;5.318;2022-09-17T18:04:55;9.70;;;1.70;;
18391;SDS011;9322;50.932;5.318;2022-09-17T18:07:21;14.07;;;1.57;;
18391;SDS011;9322;50.932;5.318;2022-09-17T18:09:47;13.27;;;1.60;;
18391;SDS011;9322;50.932;5.318;2022-09-17T18:12:12;8.87;;;1.30;;
18391;SDS011;9322;50.932;5.318;2022-09-17T18:14:38;11.33;;;1.43;;